Ana Sayfa
METAR-TAF:

METAR-TAF

Havaalanları :

Sault Ste. Marie Municipal Airport (Sanderson Field)

Sault Ste. Marie, Michigan, Amerika Birleşik Devletleri

Enlem: 46-28-46N, Boylam: 084-21-26W, yükseklik: 210 m

Güncel hava durumu gözlemi

Rapor saat 06:55 UTC de 27 dakika önce yapıldı.
Rüzgar kuzeydan 9 kt
Sıcaklık 4°C
Nem 81%
Basınç 1005 hPa
Görüş mesafesi: 16.1 km
1400 ft yükseklikte parçalı bulutlu
3600 ft yükseklikte parçalı çok bulutlu
4400 ft yükseklikte çok bulutlu

METAR: KANJ 300655Z AUTO 36009KT 10SM SCT014 BKN036 OVC044 04/01 A2968 RMK AO2 SLP053 T00390011

Saat: 03:22 (07:22 UTC)


TAF: eksik

4.000'den fazla havaalanı için hava durumu gözlemleri ve tahminleri (METAR ve TAF raporları).

Kullanılabilir istasyonlar harita üzerinde sarı ve kırmızı noktalarla gösterilir.

İstasyonun adını görmek için fareyi noktanın üzerinde gezdirin.

Sonrasında hava gözlem ve tahminlerini görmek için tıklayın.

Haritayı değiştirmek için: yaklaştırmak için siyah artı işaretli yeşil düğmeye ve uzaklaştırmak için de eksi işaretli düğmeye hızla tıklayın; bitişik haritalar için yeşil okları kullanın.


METAR-TAF: